sensor_id;sensor_type;location;lat;lon;timestamp;pressure;altitude;pressure_sealevel;temperature;humidity
20037;BME280;10179;42.640;23.312;2023-03-15T00:00:53;92716.50;;;10.80;34.74
20037;BME280;10179;42.640;23.312;2023-03-15T00:03:19;92716.75;;;10.79;34.59
20037;BME280;10179;42.640;23.312;2023-03-15T00:05:47;92705.19;;;10.80;34.56
20037;BME280;10179;42.640;23.312;2023-03-15T00:08:13;92702.81;;;10.78;34.47
20037;BME280;10179;42.640;23.312;2023-03-15T00:10:41;92696.78;;;10.78;34.58
20037;BME280;10179;42.640;23.312;2023-03-15T00:13:07;92701.94;;;10.67;34.96
20037;BME280;10179;42.640;23.312;2023-03-15T00:15:33;92707.38;;;10.61;35.18
20037;BME280;10179;42.640;23.312;2023-03-15T00:17:58;92700.19;;;10.51;35.35
20037;BME280;10179;42.640;23.312;2023-03-15T00:20:27;92709.13;;;10.50;35.57
20037;BME280;10179;42.640;23.312;2023-03-15T00:22:53;92703.31;;;10.48;35.63
20037;BME280;10179;42.640;23.312;2023-03-15T00:25:18;92647.75;;;10.07;35.71
20037;BME280;10179;42.640;23.312;2023-03-15T00:27:44;92701.75;;;10.47;35.54
20037;BME280;10179;42.640;23.312;2023-03-15T00:30:10;92623.75;;;9.93;35.68
20037;BME280;10179;42.640;23.312;2023-03-15T00:32:35;92700.94;;;10.46;35.51
20037;BME280;10179;42.640;23.312;2023-03-15T00:35:01;92700.16;;;10.46;35.70
20037;BME280;10179;42.640;23.312;2023-03-15T00:37:26;92687.28;;;10.44;35.63
20037;BME280;10179;42.640;23.312;2023-03-15T00:39:51;92697.09;;;10.54;35.56
20037;BME280;10179;42.640;23.312;2023-03-15T00:42:20;92690.19;;;10.48;35.49
20037;BME280;10179;42.640;23.312;2023-03-15T00:44:45;92641.28;;;10.15;35.60
20037;BME280;10179;42.640;23.312;2023-03-15T00:47:12;92685.72;;;10.48;35.76
20037;BME280;10179;42.640;23.312;2023-03-15T00:49:39;92690.78;;;10.55;35.78
20037;BME280;10179;42.640;23.312;2023-03-15T00:52:05;92686.09;;;10.57;35.90
20037;BME280;10179;42.640;23.312;2023-03-15T00:54:31;92687.19;;;10.61;35.75
20037;BME280;10179;42.640;23.312;2023-03-15T00:57:00;92678.75;;;10.59;35.68
20037;BME280;10179;42.640;23.312;2023-03-15T00:59:31;92684.84;;;10.65;35.84
20037;BME280;10179;42.640;23.312;2023-03-15T01:02:03;92634.00;;;10.44;35.65
20037;BME280;10179;42.640;23.312;2023-03-15T01:04:30;92669.09;;;10.65;35.68
20037;BME280;10179;42.640;23.312;2023-03-15T01:06:56;92669.91;;;10.70;35.50
20037;BME280;10179;42.640;23.312;2023-03-15T01:09:22;92648.63;;;10.67;35.43
20037;BME280;10179;42.640;23.312;2023-03-15T01:11:47;92664.75;;;10.81;35.50
20037;BME280;10179;42.640;23.312;2023-03-15T01:14:13;92658.75;;;10.85;35.37
20037;BME280;10179;42.640;23.312;2023-03-15T01:16:38;92657.44;;;10.88;35.40
20037;BME280;10179;42.640;23.312;2023-03-15T01:19:04;92653.81;;;10.89;35.28
20037;BME280;10179;42.640;23.312;2023-03-15T01:21:29;92652.75;;;10.90;35.42
20037;BME280;10179;42.640;23.312;2023-03-15T01:23:55;92655.13;;;10.91;35.41
20037;BME280;10179;42.640;23.312;2023-03-15T01:26:21;92637.50;;;10.87;35.36
20037;BME280;10179;42.640;23.312;2023-03-15T01:28:47;92645.44;;;10.97;35.34
20037;BME280;10179;42.640;23.312;2023-03-15T01:31:32;92641.34;;;11.11;35.12
20037;BME280;10179;42.640;23.312;2023-03-15T01:33:58;92638.16;;;11.04;35.10
20037;BME280;10179;42.640;23.312;2023-03-15T01:36:25;92640.81;;;11.09;34.95
20037;BME280;10179;42.640;23.312;2023-03-15T01:38:50;92635.56;;;11.09;34.92
20037;BME280;10179;42.640;23.312;2023-03-15T01:41:18;92637.63;;;11.07;34.86
20037;BME280;10179;42.640;23.312;2023-03-15T01:43:43;92639.22;;;11.08;35.30
20037;BME280;10179;42.640;23.312;2023-03-15T01:51:29;92617.69;;;11.06;35.55
20037;BME280;10179;42.640;23.312;2023-03-15T01:54:14;92585.72;;;10.82;35.64
20037;BME280;10179;42.640;23.312;2023-03-15T01:56:45;92601.34;;;10.99;35.46
20037;BME280;10179;42.640;23.312;2023-03-15T01:59:21;92603.47;;;11.02;35.53
20037;BME280;10179;42.640;23.312;2023-03-15T02:01:48;92587.06;;;10.85;35.44
20037;BME280;10179;42.640;23.312;2023-03-15T02:04:21;92608.13;;;10.95;35.54
20037;BME280;10179;42.640;23.312;2023-03-15T02:06:55;92586.53;;;10.88;35.83
20037;BME280;10179;42.640;23.312;2023-03-15T02:09:26;92541.72;;;10.57;36.00
20037;BME280;10179;42.640;23.312;2023-03-15T02:11:54;92580.44;;;10.77;35.95
20037;BME280;10179;42.640;23.312;2023-03-15T02:14:21;92571.22;;;10.74;35.79
20037;BME280;10179;42.640;23.312;2023-03-15T02:16:47;92558.06;;;10.69;35.83
20037;BME280;10179;42.640;23.312;2023-03-15T02:19:34;92499.06;;;10.45;35.69
20037;BME280;10179;42.640;23.312;2023-03-15T02:24:57;92550.81;;;10.82;35.44
20037;BME280;10179;42.640;23.312;2023-03-15T02:27:35;92565.03;;;10.91;35.60
20037;BME280;10179;42.640;23.312;2023-03-15T02:30:04;92579.22;;;10.90;35.81
20037;BME280;10179;42.640;23.312;2023-03-15T02:32:30;92571.81;;;10.87;35.96
20037;BME280;10179;42.640;23.312;2023-03-15T02:34:56;92577.09;;;10.87;36.12
20037;BME280;10179;42.640;23.312;2023-03-15T02:37:21;92490.63;;;10.33;36.14
20037;BME280;10179;42.640;23.312;2023-03-15T02:39:47;92575.75;;;10.84;36.15
20037;BME280;10179;42.640;23.312;2023-03-15T02:42:13;92577.56;;;10.79;36.06
20037;BME280;10179;42.640;23.312;2023-03-15T02:44:40;92555.97;;;10.71;36.04
20037;BME280;10179;42.640;23.312;2023-03-15T02:47:14;92554.09;;;10.67;36.15
20037;BME280;10179;42.640;23.312;2023-03-15T02:49:44;92523.19;;;10.42;36.17
20037;BME280;10179;42.640;23.312;2023-03-15T02:52:10;92573.03;;;10.69;36.16
20037;BME280;10179;42.640;23.312;2023-03-15T02:54:38;92564.59;;;10.67;36.22
20037;BME280;10179;42.640;23.312;2023-03-15T02:57:08;92575.09;;;10.67;36.47
20037;BME280;10179;42.640;23.312;2023-03-15T02:59:33;92569.56;;;10.63;36.60
20037;BME280;10179;42.640;23.312;2023-03-15T03:01:59;92566.91;;;10.58;36.83
20037;BME280;10179;42.640;23.312;2023-03-15T03:04:24;92563.72;;;10.56;37.00
20037;BME280;10179;42.640;23.312;2023-03-15T03:06:50;92559.78;;;10.54;37.10
20037;BME280;10179;42.640;23.312;2023-03-15T03:09:15;92545.31;;;10.51;37.15
20037;BME280;10179;42.640;23.312;2023-03-15T03:11:40;92547.94;;;10.46;37.16
20037;BME280;10179;42.640;23.312;2023-03-15T03:14:06;92543.19;;;10.43;37.35
20037;BME280;10179;42.640;23.312;2023-03-15T03:16:31;92544.97;;;10.37;37.43
20037;BME280;10179;42.640;23.312;2023-03-15T03:18:58;92539.41;;;10.34;37.65
20037;BME280;10179;42.640;23.312;2023-03-15T03:21:23;92536.25;;;10.32;37.54
20037;BME280;10179;42.640;23.312;2023-03-15T03:23:48;92478.97;;;9.91;37.68
20037;BME280;10179;42.640;23.312;2023-03-15T03:26:17;92529.59;;;10.24;37.91
20037;BME280;10179;42.640;23.312;2023-03-15T03:28:46;92513.47;;;10.10;38.06
20037;BME280;10179;42.640;23.312;2023-03-15T03:31:20;92474.91;;;9.78;38.11
20037;BME280;10179;42.640;23.312;2023-03-15T03:33:46;92534.25;;;10.17;38.14
20037;BME280;10179;42.640;23.312;2023-03-15T03:36:12;92495.28;;;9.98;38.10
20037;BME280;10179;42.640;23.312;2023-03-15T03:38:43;92521.25;;;10.27;38.00
20037;BME280;10179;42.640;23.312;2023-03-15T03:41:09;92452.66;;;9.81;38.12
20037;BME280;10179;42.640;23.312;2023-03-15T03:43:35;92519.41;;;10.27;38.22
20037;BME280;10179;42.640;23.312;2023-03-15T03:46:01;92475.66;;;10.01;38.25
20037;BME280;10179;42.640;23.312;2023-03-15T03:48:27;92522.59;;;10.30;37.88
20037;BME280;10179;42.640;23.312;2023-03-15T03:50:53;92518.44;;;10.34;37.97
20037;BME280;10179;42.640;23.312;2023-03-15T03:53:18;92517.94;;;10.37;37.76
20037;BME280;10179;42.640;23.312;2023-03-15T03:55:43;92513.47;;;10.37;37.89
20037;BME280;10179;42.640;23.312;2023-03-15T03:58:10;92516.88;;;10.38;38.04
20037;BME280;10179;42.640;23.312;2023-03-15T04:00:35;92476.81;;;10.15;38.13
20037;BME280;10179;42.640;23.312;2023-03-15T04:03:01;92507.44;;;10.37;38.25
20037;BME280;10179;42.640;23.312;2023-03-15T04:05:27;92501.91;;;10.38;38.37
20037;BME280;10179;42.640;23.312;2023-03-15T04:07:53;92491.69;;;10.37;38.42
20037;BME280;10179;42.640;23.312;2023-03-15T04:10:18;92498.50;;;10.38;38.33
20037;BME280;10179;42.640;23.312;2023-03-15T04:12:44;92504.81;;;10.37;38.23
20037;BME280;10179;42.640;23.312;2023-03-15T04:15:10;92444.50;;;10.10;38.33
20037;BME280;10179;42.640;23.312;2023-03-15T04:17:37;92501.69;;;10.40;38.13
20037;BME280;10179;42.640;23.312;2023-03-15T04:20:04;92495.94;;;10.43;38.14
20037;BME280;10179;42.640;23.312;2023-03-15T04:22:36;92461.66;;;10.22;38.14
20037;BME280;10179;42.640;23.312;2023-03-15T04:25:02;92468.53;;;10.29;38.27
20037;BME280;10179;42.640;23.312;2023-03-15T04:27:28;92492.53;;;10.47;38.36
20037;BME280;10179;42.640;23.312;2023-03-15T04:29:53;92492.53;;;10.47;38.19
20037;BME280;10179;42.640;23.312;2023-03-15T04:32:19;92471.19;;;10.34;38.32
20037;BME280;10179;42.640;23.312;2023-03-15T04:34:44;92479.69;;;10.46;38.22
20037;BME280;10179;42.640;23.312;2023-03-15T04:37:18;92479.69;;;10.46;38.21
20037;BME280;10179;42.640;23.312;2023-03-15T04:39:43;92483.34;;;10.45;38.17
20037;BME280;10179;42.640;23.312;2023-03-15T04:42:09;92483.84;;;10.42;38.29
20037;BME280;10179;42.640;23.312;2023-03-15T04:44:35;92485.94;;;10.40;38.22
20037;BME280;10179;42.640;23.312;2023-03-15T04:47:00;92491.69;;;10.37;38.27
20037;BME280;10179;42.640;23.312;2023-03-15T04:49:26;92490.63;;;10.33;38.31
20037;BME280;10179;42.640;23.312;2023-03-15T04:51:51;92486.81;;;10.23;38.50
20037;BME280;10179;42.640;23.312;2023-03-15T04:54:16;92464.97;;;10.13;38.37
20037;BME280;10179;42.640;23.312;2023-03-15T04:56:42;92483.75;;;10.26;38.34
20037;BME280;10179;42.640;23.312;2023-03-15T04:59:08;92488.41;;;10.24;38.42
20037;BME280;10179;42.640;23.312;2023-03-15T05:01:34;92492.06;;;10.23;38.36
20037;BME280;10179;42.640;23.312;2023-03-15T05:04:00;92492.06;;;10.23;38.18
20037;BME280;10179;42.640;23.312;2023-03-15T05:06:26;92463.84;;;10.03;38.23
20037;BME280;10179;42.640;23.312;2023-03-15T05:08:52;92492.06;;;10.18;38.40
20037;BME280;10179;42.640;23.312;2023-03-15T05:11:18;92487.63;;;10.24;38.40
20037;BME280;10179;42.640;23.312;2023-03-15T05:13:44;92476.25;;;10.13;38.42
20037;BME280;10179;42.640;23.312;2023-03-15T05:16:09;92472.59;;;10.14;38.55
20037;BME280;10179;42.640;23.312;2023-03-15T05:18:35;92495.84;;;10.33;38.70
20037;BME280;10179;42.640;23.312;2023-03-15T05:21:00;92488.00;;;10.38;38.60
20037;BME280;10179;42.640;23.312;2023-03-15T05:23:25;92431.63;;;10.08;38.37
20037;BME280;10179;42.640;23.312;2023-03-15T05:25:52;92481.25;;;10.47;38.27
20037;BME280;10179;42.640;23.312;2023-03-15T05:28:19;92488.09;;;10.48;38.09
20037;BME280;10179;42.640;23.312;2023-03-15T05:30:45;92482.34;;;10.51;37.98
20037;BME280;10179;42.640;23.312;2023-03-15T05:33:10;92484.44;;;10.54;37.83
20037;BME280;10179;42.640;23.312;2023-03-15T05:35:36;92421.22;;;10.18;37.84
20037;BME280;10179;42.640;23.312;2023-03-15T05:38:01;92474.47;;;10.56;37.55
20037;BME280;10179;42.640;23.312;2023-03-15T05:40:27;92414.59;;;10.11;37.29
20037;BME280;10179;42.640;23.312;2023-03-15T05:42:55;92479.16;;;10.49;37.06
20037;BME280;10179;42.640;23.312;2023-03-15T05:45:20;92359.47;;;9.68;36.99
20037;BME280;10179;42.640;23.312;2023-03-15T05:47:46;92477.00;;;10.36;37.05
20037;BME280;10179;42.640;23.312;2023-03-15T05:50:11;92476.16;;;10.30;36.95
20037;BME280;10179;42.640;23.312;2023-03-15T05:52:37;92470.56;;;10.21;37.15
20037;BME280;10179;42.640;23.312;2023-03-15T05:55:02;92477.44;;;10.27;37.32
20037;BME280;10179;42.640;23.312;2023-03-15T05:57:28;92466.41;;;10.25;37.43
20037;BME280;10179;42.640;23.312;2023-03-15T05:59:53;92476.44;;;10.34;37.24
20037;BME280;10179;42.640;23.312;2023-03-15T06:02:19;92480.13;;;10.38;37.24
20037;BME280;10179;42.640;23.312;2023-03-15T06:04:45;92470.47;;;10.43;37.19
20037;BME280;10179;42.640;23.312;2023-03-15T06:07:11;92480.25;;;10.53;37.15
20037;BME280;10179;42.640;23.312;2023-03-15T06:09:36;92473.22;;;10.64;37.31
20037;BME280;10179;42.640;23.312;2023-03-15T06:12:02;92465.69;;;10.78;37.39
20037;BME280;10179;42.640;23.312;2023-03-15T06:14:27;92451.56;;;10.89;37.66
20037;BME280;10179;42.640;23.312;2023-03-15T06:16:53;92476.91;;;11.20;37.42
20037;BME280;10179;42.640;23.312;2023-03-15T06:19:19;92475.94;;;11.42;37.34
20037;BME280;10179;42.640;23.312;2023-03-15T06:21:46;92477.03;;;11.66;36.93
20037;BME280;10179;42.640;23.312;2023-03-15T06:24:11;92476.00;;;11.83;36.36
20037;BME280;10179;42.640;23.312;2023-03-15T06:26:37;92468.69;;;11.95;35.90
20037;BME280;10179;42.640;23.312;2023-03-15T06:29:02;92471.84;;;12.17;35.64
20037;BME280;10179;42.640;23.312;2023-03-15T06:31:28;92412.38;;;11.96;35.22
20037;BME280;10179;42.640;23.312;2023-03-15T06:33:53;92463.16;;;12.37;34.56
20037;BME280;10179;42.640;23.312;2023-03-15T06:36:19;92454.47;;;12.42;34.17
20037;BME280;10179;42.640;23.312;2023-03-15T06:38:44;92463.13;;;12.63;33.46
20037;BME280;10179;42.640;23.312;2023-03-15T06:41:10;92457.06;;;12.73;33.25
20037;BME280;10179;42.640;23.312;2023-03-15T06:43:40;92467.00;;;12.96;33.06
20037;BME280;10179;42.640;23.312;2023-03-15T06:46:05;92456.44;;;13.06;32.62
20037;BME280;10179;42.640;23.312;2023-03-15T06:48:31;92444.31;;;13.00;32.39
20037;BME280;10179;42.640;23.312;2023-03-15T06:50:56;92459.53;;;13.29;32.04
20037;BME280;10179;42.640;23.312;2023-03-15T06:53:21;92461.78;;;13.51;31.96
20037;BME280;10179;42.640;23.312;2023-03-15T06:55:47;92452.81;;;13.57;31.32
20037;BME280;10179;42.640;23.312;2023-03-15T06:58:14;92461.94;;;13.75;30.93
20037;BME280;10179;42.640;23.312;2023-03-15T07:00:40;92454.06;;;13.70;30.92
20037;BME280;10179;42.640;23.312;2023-03-15T07:03:06;92460.13;;;13.70;30.86
20037;BME280;10179;42.640;23.312;2023-03-15T07:05:31;92430.63;;;13.63;30.79
20037;BME280;10179;42.640;23.312;2023-03-15T07:07:57;92440.69;;;13.95;30.76
20037;BME280;10179;42.640;23.312;2023-03-15T07:10:23;92448.06;;;14.32;30.59
20037;BME280;10179;42.640;23.312;2023-03-15T07:12:48;92417.19;;;14.28;30.00
20037;BME280;10179;42.640;23.312;2023-03-15T07:15:14;92444.94;;;14.60;29.86
20037;BME280;10179;42.640;23.312;2023-03-15T07:17:39;92446.59;;;14.79;29.94
20037;BME280;10179;42.640;23.312;2023-03-15T07:20:05;92451.25;;;15.12;29.60
20037;BME280;10179;42.640;23.312;2023-03-15T07:22:32;92458.09;;;15.37;29.17
20037;BME280;10179;42.640;23.312;2023-03-15T07:24:57;92452.47;;;15.67;28.83
20037;BME280;10179;42.640;23.312;2023-03-15T07:27:23;92409.34;;;15.67;28.21
20037;BME280;10179;42.640;23.312;2023-03-15T07:29:48;92445.16;;;16.49;28.16
20037;BME280;10179;42.640;23.312;2023-03-15T07:32:14;92390.47;;;16.53;27.33
20037;BME280;10179;42.640;23.312;2023-03-15T07:34:39;92440.75;;;17.04;26.73
20037;BME280;10179;42.640;23.312;2023-03-15T07:37:05;92448.22;;;17.30;26.96
20037;BME280;10179;42.640;23.312;2023-03-15T07:39:30;92449.69;;;17.63;26.30
20037;BME280;10179;42.640;23.312;2023-03-15T07:41:57;92461.97;;;17.73;25.87
20037;BME280;10179;42.640;23.312;2023-03-15T07:44:24;92436.19;;;17.87;25.35
20037;BME280;10179;42.640;23.312;2023-03-15T07:46:50;92392.50;;;17.94;24.85
20037;BME280;10179;42.640;23.312;2023-03-15T07:49:15;92431.03;;;18.50;24.55
20037;BME280;10179;42.640;23.312;2023-03-15T07:51:41;92386.00;;;18.31;23.58
20037;BME280;10179;42.640;23.312;2023-03-15T07:54:07;92433.28;;;18.43;23.54
20037;BME280;10179;42.640;23.312;2023-03-15T07:56:32;92435.72;;;18.30;24.24
20037;BME280;10179;42.640;23.312;2023-03-15T07:58:58;92436.19;;;18.10;23.84
20037;BME280;10179;42.640;23.312;2023-03-15T08:01:23;92437.75;;;17.88;23.76
20037;BME280;10179;42.640;23.312;2023-03-15T08:03:48;92425.28;;;17.61;24.12
20037;BME280;10179;42.640;23.312;2023-03-15T08:06:14;92382.00;;;17.25;24.58
20037;BME280;10179;42.640;23.312;2023-03-15T08:08:39;92437.19;;;17.64;24.51
20037;BME280;10179;42.640;23.312;2023-03-15T08:11:05;92426.69;;;17.59;24.27
20037;BME280;10179;42.640;23.312;2023-03-15T08:13:30;92430.31;;;17.63;24.31
20037;BME280;10179;42.640;23.312;2023-03-15T08:15:57;92418.81;;;17.54;24.43
20037;BME280;10179;42.640;23.312;2023-03-15T08:18:22;92400.81;;;17.51;24.61
20037;BME280;10179;42.640;23.312;2023-03-15T08:20:48;92403.19;;;17.52;24.80
20037;BME280;10179;42.640;23.312;2023-03-15T08:23:13;92404.56;;;17.50;24.75
20037;BME280;10179;42.640;23.312;2023-03-15T08:25:43;92382.38;;;17.32;24.58
20037;BME280;10179;42.640;23.312;2023-03-15T08:28:09;92416.56;;;17.33;25.04
20037;BME280;10179;42.640;23.312;2023-03-15T08:30:35;92365.78;;;16.71;25.25
20037;BME280;10179;42.640;23.312;2023-03-15T08:33:00;92409.69;;;16.91;25.37
20037;BME280;10179;42.640;23.312;2023-03-15T08:35:26;92415.00;;;16.91;25.49
20037;BME280;10179;42.640;23.312;2023-03-15T08:37:51;92419.91;;;16.84;25.59
20037;BME280;10179;42.640;23.312;2023-03-15T08:40:19;92422.03;;;16.68;25.96
20037;BME280;10179;42.640;23.312;2023-03-15T08:42:51;92411.03;;;16.61;25.96
20037;BME280;10179;42.640;23.312;2023-03-15T08:45:18;92360.31;;;16.35;26.52
20037;BME280;10179;42.640;23.312;2023-03-15T08:47:44;92339.09;;;16.21;26.62
20037;BME280;10179;42.640;23.312;2023-03-15T08:50:13;92344.97;;;16.18;26.42
20037;BME280;10179;42.640;23.312;2023-03-15T08:52:40;92408.78;;;16.68;26.38
20037;BME280;10179;42.640;23.312;2023-03-15T08:55:06;92413.78;;;16.69;26.45
20037;BME280;10179;42.640;23.312;2023-03-15T08:57:32;92427.91;;;16.65;26.34
20037;BME280;10179;42.640;23.312;2023-03-15T09:00:03;92432.03;;;16.57;26.20
20037;BME280;10179;42.640;23.312;2023-03-15T09:02:41;92426.69;;;16.43;26.39
20037;BME280;10179;42.640;23.312;2023-03-15T09:05:07;92415.69;;;16.36;26.47
20037;BME280;10179;42.640;23.312;2023-03-15T09:07:35;92417.28;;;16.51;26.63
20037;BME280;10179;42.640;23.312;2023-03-15T09:10:00;92377.41;;;16.29;26.39
20037;BME280;10179;42.640;23.312;2023-03-15T09:12:25;92409.94;;;16.62;26.70
20037;BME280;10179;42.640;23.312;2023-03-15T09:14:52;92376.81;;;16.45;26.68
20037;BME280;10179;42.640;23.312;2023-03-15T09:17:17;92416.63;;;16.73;26.31
20037;BME280;10179;42.640;23.312;2023-03-15T09:19:43;92390.00;;;16.51;26.14
20037;BME280;10179;42.640;23.312;2023-03-15T09:22:08;92425.28;;;16.65;26.52
20037;BME280;10179;42.640;23.312;2023-03-15T09:24:36;92430.34;;;16.48;26.67
20037;BME280;10179;42.640;23.312;2023-03-15T09:27:01;92430.59;;;16.32;26.70
20037;BME280;10179;42.640;23.312;2023-03-15T09:29:27;92343.69;;;15.69;26.95
20037;BME280;10179;42.640;23.312;2023-03-15T09:31:53;92425.63;;;16.12;27.13
20037;BME280;10179;42.640;23.312;2023-03-15T09:34:19;92435.78;;;16.05;27.37
20037;BME280;10179;42.640;23.312;2023-03-15T09:36:44;92418.09;;;16.00;27.54
20037;BME280;10179;42.640;23.312;2023-03-15T09:39:17;92420.53;;;15.96;27.95
20037;BME280;10179;42.640;23.312;2023-03-15T09:41:45;92396.66;;;15.83;28.03
20037;BME280;10179;42.640;23.312;2023-03-15T09:44:43;92413.31;;;16.02;27.96
20037;BME280;10179;42.640;23.312;2023-03-15T09:55:24;92389.94;;;16.23;27.68
20037;BME280;10179;42.640;23.312;2023-03-15T09:57:51;92388.75;;;15.96;28.06
20037;BME280;10179;42.640;23.312;2023-03-15T10:00:29;92387.88;;;15.87;27.97
20037;BME280;10179;42.640;23.312;2023-03-15T10:02:59;92391.94;;;15.80;28.11
20037;BME280;10179;42.640;23.312;2023-03-15T10:05:47;92385.78;;;15.84;28.26
20037;BME280;10179;42.640;23.312;2023-03-15T10:08:16;92400.81;;;15.89;28.30
20037;BME280;10179;42.640;23.312;2023-03-15T10:18:56;92397.72;;;15.63;28.60
20037;BME280;10179;42.640;23.312;2023-03-15T10:24:22;92398.66;;;15.72;28.34
20037;BME280;10179;42.640;23.312;2023-03-15T10:26:50;92401.09;;;15.68;28.22
20037;BME280;10179;42.640;23.312;2023-03-15T10:29:19;92386.50;;;15.71;28.58
20037;BME280;10179;42.640;23.312;2023-03-15T10:31:45;92370.47;;;15.62;28.45
20037;BME280;10179;42.640;23.312;2023-03-15T10:34:12;92385.94;;;15.74;28.63
20037;BME280;10179;42.640;23.312;2023-03-15T10:36:44;92349.22;;;15.48;28.48
20037;BME280;10179;42.640;23.312;2023-03-15T10:39:11;92395.22;;;15.71;28.62
20037;BME280;10179;42.640;23.312;2023-03-15T10:41:40;92400.31;;;15.68;28.77
20037;BME280;10179;42.640;23.312;2023-03-15T10:44:16;92397.59;;;15.73;28.59
20037;BME280;10179;42.640;23.312;2023-03-15T10:46:41;92402.47;;;15.66;28.57
20037;BME280;10179;42.640;23.312;2023-03-15T10:49:10;92395.53;;;15.70;28.61
20037;BME280;10179;42.640;23.312;2023-03-15T10:51:42;92382.28;;;15.70;28.75
20037;BME280;10179;42.640;23.312;2023-03-15T10:54:14;92380.22;;;15.67;28.54
20037;BME280;10179;42.640;23.312;2023-03-15T10:56:45;92389.72;;;15.68;28.75
20037;BME280;10179;42.640;23.312;2023-03-15T10:59:22;92390.72;;;15.72;28.69
20037;BME280;10179;42.640;23.312;2023-03-15T11:01:53;92381.31;;;15.66;28.80
20037;BME280;10179;42.640;23.312;2023-03-15T11:04:31;92381.31;;;15.66;28.83
20037;BME280;10179;42.640;23.312;2023-03-15T11:09:23;92374.94;;;15.67;29.22
20037;BME280;10179;42.640;23.312;2023-03-15T11:11:57;92376.00;;;15.66;29.23
20037;BME280;10179;42.640;23.312;2023-03-15T11:14:23;92296.88;;;15.08;29.38
20037;BME280;10179;42.640;23.312;2023-03-15T11:16:54;92382.41;;;15.60;29.22
20037;BME280;10179;42.640;23.312;2023-03-15T11:19:25;92378.19;;;15.59;29.07
20037;BME280;10179;42.640;23.312;2023-03-15T11:21:52;92352.28;;;15.37;29.28
20037;BME280;10179;42.640;23.312;2023-03-15T11:24:32;92377.13;;;15.60;29.36
20037;BME280;10179;42.640;23.312;2023-03-15T11:27:03;92377.69;;;15.57;29.23
20037;BME280;10179;42.640;23.312;2023-03-15T11:29:34;92385.63;;;15.57;29.10
20037;BME280;10179;42.640;23.312;2023-03-15T11:32:23;92376.81;;;15.61;29.10
20037;BME280;10179;42.640;23.312;2023-03-15T11:35:12;92371.72;;;15.70;28.94
20037;BME280;10179;42.640;23.312;2023-03-15T11:37:47;92365.75;;;15.59;29.24
20037;BME280;10179;42.640;23.312;2023-03-15T11:42:56;92367.63;;;15.59;29.25
20037;BME280;10179;42.640;23.312;2023-03-15T11:48:03;92298.31;;;15.19;29.97
20037;BME280;10179;42.640;23.312;2023-03-15T11:50:33;92366.91;;;15.72;30.37
20037;BME280;10179;42.640;23.312;2023-03-15T11:53:00;92337.91;;;15.62;29.92
20037;BME280;10179;42.640;23.312;2023-03-15T11:55:28;92329.06;;;15.52;30.00
20037;BME280;10179;42.640;23.312;2023-03-15T11:57:55;92354.25;;;15.69;30.06
20037;BME280;10179;42.640;23.312;2023-03-15T12:03:54;92326.97;;;15.49;29.55
20037;BME280;10179;42.640;23.312;2023-03-15T12:06:04;92343.38;;;15.51;29.25
20037;BME280;10179;42.640;23.312;2023-03-15T12:08:52;92305.91;;;15.44;29.60
20037;BME280;10179;42.640;23.312;2023-03-15T12:14:03;92326.97;;;15.68;31.75
20037;BME280;10179;42.640;23.312;2023-03-15T12:16:40;92340.53;;;15.67;31.86
20037;BME280;10179;42.640;23.312;2023-03-15T12:19:18;92333.09;;;15.69;32.23
20037;BME280;10179;42.640;23.312;2023-03-15T12:21:52;92132.41;;;14.35;32.46
20037;BME280;10179;42.640;23.312;2023-03-15T12:24:46;92332.78;;;15.70;32.13
20037;BME280;10179;42.640;23.312;2023-03-15T12:27:15;92331.78;;;15.66;31.91
20037;BME280;10179;42.640;23.312;2023-03-15T12:29:43;92351.66;;;15.64;31.72
20037;BME280;10179;42.640;23.312;2023-03-15T12:32:15;92330.06;;;15.57;31.82
20037;BME280;10179;42.640;23.312;2023-03-15T12:34:55;92292.75;;;15.39;31.97
20037;BME280;10179;42.640;23.312;2023-03-15T12:48:13;92326.63;;;15.56;32.76
20037;BME280;10179;42.640;23.312;2023-03-15T12:55:57;92323.13;;;15.42;33.09
20037;BME280;10179;42.640;23.312;2023-03-15T12:58:30;92300.38;;;15.41;33.23
20037;BME280;10179;42.640;23.312;2023-03-15T13:01:02;92249.88;;;15.04;33.45
20037;BME280;10179;42.640;23.312;2023-03-15T13:03:29;92323.81;;;15.47;33.30
20037;BME280;10179;42.640;23.312;2023-03-15T13:06:33;92313.41;;;15.56;32.96
20037;BME280;10179;42.640;23.312;2023-03-15T13:19:44;92294.56;;;15.58;32.18
20037;BME280;10179;42.640;23.312;2023-03-15T13:22:23;92234.47;;;15.25;31.58
20037;BME280;10179;42.640;23.312;2023-03-15T13:27:34;92314.47;;;15.74;31.07
20037;BME280;10179;42.640;23.312;2023-03-15T13:33:31;92321.38;;;15.89;31.24
20037;BME280;10179;42.640;23.312;2023-03-15T13:38:54;92273.41;;;15.58;30.98
20037;BME280;10179;42.640;23.312;2023-03-15T13:43:49;92328.78;;;15.73;30.64
20037;BME280;10179;42.640;23.312;2023-03-15T13:46:17;92269.03;;;15.34;30.90
20037;BME280;10179;42.640;23.312;2023-03-15T13:48:45;92306.31;;;15.51;30.89
20037;BME280;10179;42.640;23.312;2023-03-15T13:51:22;92266.94;;;15.31;30.63
20037;BME280;10179;42.640;23.312;2023-03-15T13:53:51;92243.00;;;15.03;30.58
20037;BME280;10179;42.640;23.312;2023-03-15T13:56:20;92278.97;;;15.23;30.78
20037;BME280;10179;42.640;23.312;2023-03-15T13:58:51;92263.59;;;15.07;30.70
20037;BME280;10179;42.640;23.312;2023-03-15T14:01:17;92340.44;;;15.53;30.79
20037;BME280;10179;42.640;23.312;2023-03-15T14:03:46;92287.16;;;15.22;30.86
20037;BME280;10179;42.640;23.312;2023-03-15T14:06:20;92328.56;;;15.50;30.99
20037;BME280;10179;42.640;23.312;2023-03-15T14:08:46;92317.06;;;15.41;31.17
20037;BME280;10179;42.640;23.312;2023-03-15T14:11:20;92242.03;;;14.99;31.04
20037;BME280;10179;42.640;23.312;2023-03-15T14:13:57;92324.13;;;15.46;31.10